LKSZ weather

Sazená Airport
Sazená, Central Bohemian Region, Czechia

Public forecast

Using degrees Celsius for public forecast. Weather courtesy of forecast.io.

METAR (pilot weather report)

Report is more than 6 hours old.

Closest report is Vodochody Airport, 8.4 nm (15.5 km) SE. Retrieved 2019/05/24 13:00 UTC (2 days ago):

LKVO 241300Z VRB04KT CAVOK 21/08 Q1014

TAF (pilot weather forecast)

Forecast is more than 12 hours old.

Closest forecast is Václav Havel Airport Prague, 13.4 nm (24.9 km) S. Retrieved 2019/05/26 00:12 UTC (1 day ago):

TAF LKPR 262300Z 2700/2806 23008KT CAVOK BECMG 2713/2715 17006KT 9999 SCT043 BECMG 2717/2720 9000 -RA BKN035 BECMG 2800/2803 3500 RA SCT013 BKN020